Time;durP1;ratioP1;P1;durP2;ratioP2;P2;SDS_P1;SDS_P2;PMS_P1;PMS_P2;Temp;Humidity;BMP_temperature;BMP_pressure;BME280_temperature;BME280_humidity;BME280_pressure;Samples;Min_cycle;Max_cycle;Signal;HPM_P1;HPM_P2
2021/08/12 00:02:11;;;;;;;32.78;13.02;;;;;;;;;;5031763;28;20197;-87
2021/08/12 00:04:36;;;;;;;33.05;14.43;;;;;;;;;;5031991;28;20369;-87
2021/08/12 00:07:02;;;;;;;26.15;12.02;;;;;;;;;;5032540;28;20025;-87
2021/08/12 00:09:27;;;;;;;28.15;12.15;;;;;;;;;;5032443;28;20009;-87
2021/08/12 00:11:52;;;;;;;26.25;11.57;;;;;;;;;;5032369;28;20022;-87
2021/08/12 00:14:17;;;;;;;33.50;11.80;;;;;;;;;;5032455;28;20021;-87
2021/08/12 00:16:42;;;;;;;25.60;11.52;;;;;;;;;;5032208;28;20021;-87
2021/08/12 00:19:14;;;;;;;26.55;11.32;;;;;;;;;;5032299;28;20032;-87
2021/08/12 00:21:40;;;;;;;31.02;11.57;;;;;;;;;;5030447;28;20112;-87
2021/08/12 00:24:05;;;;;;;25.00;11.23;;;;;;;;;;5020367;28;20092;-87
2021/08/12 00:26:30;;;;;;;23.83;10.77;;;;;;;;;;5033607;28;20029;-88
2021/08/12 00:28:56;;;;;;;24.13;10.32;;;;;;;;;;5015276;28;20461;-87
2021/08/12 00:31:21;;;;;;;20.33;9.98;;;;;;;;;;5012411;28;20488;-87
2021/08/12 00:33:46;;;;;;;29.67;10.52;;;;;;;;;;5026347;28;20029;-87
2021/08/12 00:36:11;;;;;;;22.45;10.50;;;;;;;;;;5021760;28;20034;-88
2021/08/12 00:38:37;;;;;;;16.80;9.30;;;;;;;;;;5033151;28;20022;-87
2021/08/12 00:41:02;;;;;;;21.17;10.10;;;;;;;;;;5032235;28;20041;-88
2021/08/12 00:43:27;;;;;;;19.63;9.88;;;;;;;;;;5032083;28;20028;-88
2021/08/12 00:45:52;;;;;;;22.42;10.07;;;;;;;;;;5031030;28;20032;-88
2021/08/12 00:48:17;;;;;;;25.27;10.55;;;;;;;;;;5032084;28;20025;-88
2021/08/12 00:50:43;;;;;;;22.13;10.43;;;;;;;;;;5031789;28;20017;-87
2021/08/12 00:53:09;;;;;;;26.35;9.75;;;;;;;;;;5031989;28;20017;-87
2021/08/12 00:55:42;;;;;;;21.42;9.65;;;;;;;;;;5031600;28;20049;-87
2021/08/12 00:58:07;;;;;;;22.30;9.73;;;;;;;;;;5021470;28;20339;-87
2021/08/12 01:00:35;;;;;;;24.08;10.93;;;;;;;;;;5025713;28;20120;-87
2021/08/12 01:03:00;;;;;;;31.15;11.60;;;;;;;;;;5025906;28;20105;-87
2021/08/12 01:05:30;;;;;;;27.17;11.70;;;;;;;;;;5020893;28;20533;-87
2021/08/12 01:07:58;;;;;;;25.70;10.55;;;;;;;;;;5031579;28;20064;-87
2021/08/12 01:10:29;;;;;;;24.65;11.10;;;;;;;;;;5031670;28;20025;-87
2021/08/12 01:12:57;;;;;;;22.50;11.03;;;;;;;;;;5031792;28;20392;-87
2021/08/12 01:15:32;;;;;;;21.35;10.40;;;;;;;;;;5031696;28;20392;-87
2021/08/12 01:18:02;;;;;;;23.98;9.65;;;;;;;;;;5031509;28;20100;-88
2021/08/12 01:20:34;;;;;;;25.00;10.25;;;;;;;;;;5032851;28;20480;-87
2021/08/12 01:22:59;;;;;;;20.27;7.65;;;;;;;;;;5023711;28;20365;-88
2021/08/12 01:25:27;;;;;;;19.35;7.93;;;;;;;;;;5032961;28;20037;-87
2021/08/12 01:27:54;;;;;;;13.10;6.90;;;;;;;;;;5028570;28;20484;-87
2021/08/12 01:30:30;;;;;;;9.32;5.57;;;;;;;;;;5020583;28;20084;-88
2021/08/12 01:33:02;;;;;;;13.55;6.35;;;;;;;;;;5017374;28;20030;-88
2021/08/12 01:35:28;;;;;;;28.23;7.00;;;;;;;;;;5031582;28;20091;-87
2021/08/12 01:37:59;;;;;;;12.85;6.55;;;;;;;;;;5031147;28;20028;-87
2021/08/12 01:40:26;;;;;;;11.90;6.47;;;;;;;;;;5032558;28;20044;-87
2021/08/12 01:42:52;;;;;;;11.05;5.80;;;;;;;;;;5031505;28;20121;-88
2021/08/12 01:45:18;;;;;;;11.88;6.05;;;;;;;;;;5031137;28;20017;-88
2021/08/12 01:47:43;;;;;;;9.48;5.30;;;;;;;;;;5014758;28;20357;-87
2021/08/12 01:50:13;;;;;;;9.77;5.63;;;;;;;;;;5025414;28;20026;-88
2021/08/12 01:52:40;;;;;;;9.63;5.78;;;;;;;;;;5022205;28;20380;-87
2021/08/12 01:55:06;;;;;;;10.75;5.75;;;;;;;;;;5031112;28;20128;-87
2021/08/12 01:57:31;;;;;;;13.95;5.88;;;;;;;;;;5026000;28;20037;-87
2021/08/12 01:59:57;;;;;;;9.57;6.05;;;;;;;;;;5015364;28;20026;-87
2021/08/12 02:02:23;;;;;;;15.52;6.05;;;;;;;;;;5035041;28;20028;-88
2021/08/12 02:04:48;;;;;;;11.70;6.10;;;;;;;;;;5036334;28;20117;-87
2021/08/12 02:07:14;;;;;;;10.00;5.45;;;;;;;;;;5034782;28;20029;-88
2021/08/12 02:09:40;;;;;;;12.63;5.82;;;;;;;;;;5034914;28;20393;-87
2021/08/12 02:12:09;;;;;;;11.90;5.70;;;;;;;;;;5020742;28;20084;-87
2021/08/12 02:14:35;;;;;;;12.55;5.78;;;;;;;;;;5036074;28;20036;-87
2021/08/12 02:17:00;;;;;;;12.52;5.38;;;;;;;;;;5024105;28;20034;-88
2021/08/12 02:19:25;;;;;;;9.73;5.40;;;;;;;;;;5022407;28;20508;-87
2021/08/12 02:21:56;;;;;;;10.15;5.20;;;;;;;;;;5034691;28;20133;-88
2021/08/12 02:24:41;;;;;;;8.45;5.18;;;;;;;;;;5034722;28;20048;-88
2021/08/12 02:27:12;;;;;;;12.20;5.47;;;;;;;;;;5034029;28;20120;-87
2021/08/12 02:29:38;;;;;;;13.63;5.25;;;;;;;;;;5034873;28;20021;-88
2021/08/12 02:32:05;;;;;;;8.75;4.85;;;;;;;;;;5035856;28;20025;-88
2021/08/12 02:34:31;;;;;;;9.45;4.57;;;;;;;;;;5034695;28;20021;-87
2021/08/12 02:36:57;;;;;;;9.40;5.03;;;;;;;;;;5034778;28;20026;-87
2021/08/12 02:39:25;;;;;;;8.35;5.40;;;;;;;;;;5035442;28;20033;-87
2021/08/12 02:41:51;;;;;;;10.68;5.47;;;;;;;;;;5034402;28;20020;-88
2021/08/12 02:44:17;;;;;;;10.52;5.03;;;;;;;;;;5034403;28;20028;-87
2021/08/12 02:46:43;;;;;;;18.02;6.03;;;;;;;;;;5026481;28;20025;-88
2021/08/12 02:49:09;;;;;;;10.65;5.18;;;;;;;;;;5023499;28;20029;-88
2021/08/12 02:51:35;;;;;;;11.98;5.35;;;;;;;;;;5032467;28;20358;-87
2021/08/12 02:54:02;;;;;;;9.23;5.28;;;;;;;;;;5034149;28;20545;-87
2021/08/12 02:56:29;;;;;;;12.25;5.78;;;;;;;;;;5020050;28;20060;-87
2021/08/12 02:58:54;;;;;;;11.50;5.03;;;;;;;;;;5034281;28;20357;-87
2021/08/12 03:01:20;;;;;;;8.70;5.18;;;;;;;;;;5026042;28;20018;-87
2021/08/12 03:03:46;;;;;;;8.40;4.72;;;;;;;;;;5020579;28;20018;-87
2021/08/12 03:06:14;;;;;;;8.00;5.03;;;;;;;;;;5034042;28;20021;-88
2021/08/12 03:08:39;;;;;;;7.55;4.72;;;;;;;;;;5032592;28;20055;-87
2021/08/12 03:11:07;;;;;;;9.82;5.53;;;;;;;;;;5023198;28;20561;-87
2021/08/12 03:13:32;;;;;;;10.93;5.32;;;;;;;;;;5030849;28;20410;-87
2021/08/12 03:15:57;;;;;;;9.85;5.38;;;;;;;;;;5034900;28;20125;-87
2021/08/12 03:18:23;;;;;;;8.30;5.30;;;;;;;;;;5022842;28;20060;-88
2021/08/12 03:20:48;;;;;;;10.70;5.28;;;;;;;;;;5027491;28;20110;-87
2021/08/12 03:23:13;;;;;;;9.30;5.20;;;;;;;;;;5022637;28;20029;-87
2021/08/12 03:25:39;;;;;;;8.82;5.25;;;;;;;;;;5033377;28;20022;-87
2021/08/12 03:28:04;;;;;;;10.63;5.47;;;;;;;;;;5033598;28;20516;-88
2021/08/12 03:30:29;;;;;;;12.35;5.35;;;;;;;;;;5033502;28;20021;-87
2021/08/12 03:32:54;;;;;;;12.50;5.60;;;;;;;;;;5033163;28;20021;-87
2021/08/12 03:35:20;;;;;;;8.90;5.28;;;;;;;;;;5023030;28;20104;-88
2021/08/12 03:37:45;;;;;;;8.00;5.10;;;;;;;;;;5029639;28;20450;-88
2021/08/12 03:40:11;;;;;;;8.95;4.90;;;;;;;;;;5033181;28;20029;-87
2021/08/12 03:42:36;;;;;;;9.20;5.05;;;;;;;;;;5019428;28;20385;-87
2021/08/12 03:45:02;;;;;;;12.15;5.97;;;;;;;;;;5033064;28;20100;-87
2021/08/12 03:47:27;;;;;;;8.13;4.82;;;;;;;;;;5020866;28;20087;-87
2021/08/12 03:49:52;;;;;;;9.23;5.90;;;;;;;;;;5030326;28;20472;-87
2021/08/12 03:52:17;;;;;;;10.20;5.70;;;;;;;;;;5013271;28;20081;-88
2021/08/12 03:54:43;;;;;;;6.70;4.97;;;;;;;;;;5028940;28;20024;-88
2021/08/12 03:57:08;;;;;;;8.18;5.28;;;;;;;;;;5032996;28;20048;-87
2021/08/12 03:59:33;;;;;;;11.98;5.10;;;;;;;;;;5019108;28;20488;-87
2021/08/12 04:01:59;;;;;;;9.15;5.32;;;;;;;;;;5032652;28;20023;-87
2021/08/12 04:04:24;;;;;;;10.02;4.93;;;;;;;;;;5032822;28;20100;-88
2021/08/12 04:06:50;;;;;;;14.07;5.35;;;;;;;;;;5029287;28;20105;-87
2021/08/12 04:09:15;;;;;;;10.18;4.90;;;;;;;;;;5032853;28;20028;-87
2021/08/12 04:11:40;;;;;;;8.73;5.07;;;;;;;;;;5032483;28;20031;-87
2021/08/12 04:14:05;;;;;;;10.30;5.13;;;;;;;;;;5032469;28;20017;-87
2021/08/12 04:16:31;;;;;;;8.82;4.78;;;;;;;;;;5020387;28;20091;-88
2021/08/12 04:18:56;;;;;;;8.27;5.00;;;;;;;;;;5027691;28;20022;-87
2021/08/12 04:21:21;;;;;;;9.38;5.80;;;;;;;;;;5032627;28;20199;-87
2021/08/12 04:23:46;;;;;;;10.15;5.40;;;;;;;;;;5032498;28;20099;-87
2021/08/12 04:26:11;;;;;;;11.90;5.45;;;;;;;;;;5032255;28;20113;-87
2021/08/12 04:28:37;;;;;;;9.95;4.90;;;;;;;;;;5032400;28;20021;-88
2021/08/12 04:31:02;;;;;;;9.02;4.55;;;;;;;;;;5032183;28;20116;-88
2021/08/12 04:33:29;;;;;;;10.57;4.70;;;;;;;;;;5032356;28;20064;-87
2021/08/12 04:35:55;;;;;;;46.40;5.60;;;;;;;;;;5031230;28;20017;-87
2021/08/12 04:38:20;;;;;;;8.68;4.30;;;;;;;;;;5020970;28;20016;-88
2021/08/12 04:40:45;;;;;;;10.48;4.97;;;;;;;;;;5019041;28;20053;-88
2021/08/12 04:43:10;;;;;;;9.30;5.25;;;;;;;;;;5026249;28;20065;-87
2021/08/12 04:45:35;;;;;;;13.95;5.80;;;;;;;;;;5023231;28;20021;-87
2021/08/12 04:48:02;;;;;;;10.27;5.85;;;;;;;;;;5032452;28;20075;-87
2021/08/12 04:50:27;;;;;;;11.40;5.43;;;;;;;;;;5031914;28;20436;-87
2021/08/12 04:52:53;;;;;;;10.70;5.05;;;;;;;;;;5031877;28;20029;-87
2021/08/12 04:55:18;;;;;;;9.90;5.60;;;;;;;;;;5031974;28;20456;-88
2021/08/12 04:57:43;;;;;;;8.48;5.15;;;;;;;;;;5031917;28;20030;-87
2021/08/12 05:00:09;;;;;;;8.70;5.43;;;;;;;;;;5033143;28;20392;-88
2021/08/12 05:02:34;;;;;;;8.05;5.30;;;;;;;;;;5013157;28;20025;-87
2021/08/12 05:04:59;;;;;;;10.93;5.10;;;;;;;;;;5028427;28;20775;-87
2021/08/12 05:07:24;;;;;;;8.63;5.30;;;;;;;;;;5031741;28;20056;-87
2021/08/12 05:09:50;;;;;;;10.05;5.90;;;;;;;;;;5031738;28;20091;-87
2021/08/12 05:12:19;;;;;;;10.30;5.72;;;;;;;;;;5031795;28;20017;-87
2021/08/12 05:14:44;;;;;;;9.80;5.90;;;;;;;;;;5031711;28;20378;-87
2021/08/12 05:17:09;;;;;;;8.45;5.47;;;;;;;;;;5031602;28;20021;-87
2021/08/12 05:19:35;;;;;;;12.27;5.95;;;;;;;;;;5032923;28;20025;-87
2021/08/12 05:22:00;;;;;;;12.25;5.75;;;;;;;;;;5031609;28;20108;-87
2021/08/12 05:24:25;;;;;;;10.52;5.97;;;;;;;;;;5028159;28;20159;-87
2021/08/12 05:26:50;;;;;;;8.77;4.60;;;;;;;;;;5022703;28;20101;-87
2021/08/12 05:29:15;;;;;;;10.13;5.40;;;;;;;;;;5030533;28;20021;-87
2021/08/12 05:31:41;;;;;;;9.35;5.47;;;;;;;;;;5029678;28;20542;-87
2021/08/12 05:34:06;;;;;;;10.07;5.35;;;;;;;;;;5036731;28;20021;-87
2021/08/12 05:36:31;;;;;;;8.85;5.40;;;;;;;;;;5035536;28;20021;-88
2021/08/12 05:38:58;;;;;;;10.38;5.70;;;;;;;;;;5035537;28;20411;-88
2021/08/12 05:41:23;;;;;;;9.23;5.38;;;;;;;;;;5036585;28;20025;-87
2021/08/12 05:43:49;;;;;;;12.40;6.75;;;;;;;;;;5036706;28;20529;-87
2021/08/12 05:46:14;;;;;;;16.58;6.93;;;;;;;;;;5035204;28;20108;-87
2021/08/12 05:48:39;;;;;;;10.77;5.55;;;;;;;;;;5035328;28;20385;-88
2021/08/12 05:51:04;;;;;;;13.90;6.03;;;;;;;;;;5035152;28;20100;-88
2021/08/12 05:53:30;;;;;;;10.70;6.22;;;;;;;;;;5035285;28;20476;-88
2021/08/12 05:55:55;;;;;;;11.65;6.22;;;;;;;;;;5029471;28;20492;-88
2021/08/12 05:58:21;;;;;;;10.23;6.40;;;;;;;;;;5017579;28;20022;-87
2021/08/12 06:00:46;;;;;;;10.85;6.05;;;;;;;;;;5053093;28;20025;-88
2021/08/12 06:03:12;;;;;;;11.45;7.25;;;;;;;;;;5025922;28;20127;-87
2021/08/12 06:05:37;;;;;;;15.02;7.40;;;;;;;;;;5015157;28;20029;-87
2021/08/12 06:08:03;;;;;;;16.10;8.98;;;;;;;;;;5016880;28;20072;-87
2021/08/12 06:10:29;;;;;;;16.23;8.30;;;;;;;;;;5017608;28;20160;-87
2021/08/12 06:12:55;;;;;;;16.55;7.50;;;;;;;;;;5022664;28;20032;-87
2021/08/12 06:15:20;;;;;;;12.35;7.15;;;;;;;;;;5031301;28;20072;-87
2021/08/12 06:17:46;;;;;;;12.77;7.70;;;;;;;;;;5022345;28;20108;-87
2021/08/12 06:20:11;;;;;;;13.88;8.18;;;;;;;;;;5018395;28;20030;-87
2021/08/12 06:22:36;;;;;;;14.98;8.32;;;;;;;;;;5011494;28;20017;-88
2021/08/12 06:25:02;;;;;;;19.02;8.65;;;;;;;;;;5017581;28;20026;-87
2021/08/12 06:27:27;;;;;;;14.20;8.40;;;;;;;;;;5030208;28;20025;-87
2021/08/12 06:29:52;;;;;;;13.73;8.30;;;;;;;;;;5015570;28;20461;-87
2021/08/12 06:32:17;;;;;;;17.05;9.02;;;;;;;;;;5022960;28;20032;-87
2021/08/12 06:34:43;;;;;;;16.42;8.82;;;;;;;;;;5023405;28;20047;-87
2021/08/12 06:37:08;;;;;;;15.75;9.30;;;;;;;;;;5014830;28;20110;-87
2021/08/12 06:39:33;;;;;;;16.00;9.27;;;;;;;;;;5028692;28;20431;-87
2021/08/12 06:41:58;;;;;;;18.95;9.32;;;;;;;;;;5030721;28;20013;-87
2021/08/12 06:44:23;;;;;;;13.95;9.05;;;;;;;;;;5033520;28;20021;-87
2021/08/12 06:46:49;;;;;;;18.13;10.02;;;;;;;;;;5019719;28;20021;-87
2021/08/12 06:49:14;;;;;;;17.92;9.43;;;;;;;;;;5024937;28;20025;-87
2021/08/12 06:51:40;;;;;;;19.98;10.57;;;;;;;;;;5019511;28;20493;-88
2021/08/12 06:54:05;;;;;;;18.05;9.52;;;;;;;;;;5023383;28;20080;-87
2021/08/12 06:56:31;;;;;;;17.35;9.73;;;;;;;;;;5017059;28;20057;-87
2021/08/12 06:58:56;;;;;;;17.48;9.13;;;;;;;;;;5026168;28;20444;-88
2021/08/12 07:01:21;;;;;;;17.65;9.35;;;;;;;;;;5020953;28;20112;-88
2021/08/12 07:03:47;;;;;;;15.70;9.30;;;;;;;;;;5027325;28;20492;-88
2021/08/12 07:06:12;;;;;;;14.05;8.65;;;;;;;;;;5026722;28;20029;-88
2021/08/12 07:08:37;;;;;;;14.30;8.57;;;;;;;;;;5024291;28;20025;-88
2021/08/12 07:11:02;;;;;;;14.63;8.95;;;;;;;;;;5024380;28;20037;-88
2021/08/12 07:13:27;;;;;;;20.30;8.82;;;;;;;;;;5033587;28;20029;-87
2021/08/12 07:15:53;;;;;;;18.15;9.50;;;;;;;;;;5033617;28;20033;-87
2021/08/12 07:18:18;;;;;;;19.23;10.07;;;;;;;;;;5023419;28;20164;-88
2021/08/12 07:20:44;;;;;;;16.90;9.32;;;;;;;;;;5029742;28;20014;-88
2021/08/12 07:23:12;;;;;;;17.40;9.98;;;;;;;;;;5033510;28;20025;-88
2021/08/12 07:25:37;;;;;;;10.73;6.38;;;;;;;;;;5033231;28;20020;-87
2021/08/12 07:28:03;;;;;;;70.25;9.13;;;;;;;;;;5033617;28;20009;-88
2021/08/12 07:30:29;;;;;;;13.20;7.57;;;;;;;;;;5019906;28;20536;-88
2021/08/12 07:32:54;;;;;;;19.13;8.88;;;;;;;;;;5031735;28;20017;-87
2021/08/12 07:35:21;;;;;;;20.10;9.10;;;;;;;;;;5033308;28;20509;-87
2021/08/12 07:37:46;;;;;;;18.17;9.02;;;;;;;;;;5019156;28;20026;-87
2021/08/12 07:40:12;;;;;;;16.15;8.57;;;;;;;;;;5033137;28;20508;-88
2021/08/12 07:42:37;;;;;;;16.92;8.27;;;;;;;;;;5032414;28;20017;-88
2021/08/12 07:45:03;;;;;;;13.95;8.07;;;;;;;;;;5017677;28;20013;-87
2021/08/12 07:47:30;;;;;;;14.82;7.40;;;;;;;;;;5025843;28;20055;-87
2021/08/12 07:49:55;;;;;;;12.35;7.28;;;;;;;;;;5032847;28;20220;-88
2021/08/12 07:52:20;;;;;;;13.73;7.75;;;;;;;;;;5030946;28;20112;-88
2021/08/12 07:54:48;;;;;;;13.73;8.25;;;;;;;;;;5028792;28;20377;-87
2021/08/12 07:57:14;;;;;;;12.55;7.68;;;;;;;;;;5032902;28;20083;-87
2021/08/12 07:59:39;;;;;;;13.13;7.00;;;;;;;;;;5025502;28;20021;-88
2021/08/12 08:02:04;;;;;;;11.40;6.85;;;;;;;;;;5026148;28;20021;-87
2021/08/12 08:04:29;;;;;;;14.10;6.97;;;;;;;;;;5032791;28;20341;-87
2021/08/12 08:06:54;;;;;;;11.40;6.45;;;;;;;;;;5032468;28;20507;-88
2021/08/12 08:09:20;;;;;;;57.42;7.30;;;;;;;;;;5034022;28;20033;-87
2021/08/12 08:11:45;;;;;;;11.40;6.00;;;;;;;;;;5024331;28;20099;-87
2021/08/12 08:14:10;;;;;;;10.40;5.47;;;;;;;;;;5018571;28;20044;-88
2021/08/12 08:16:35;;;;;;;13.38;7.28;;;;;;;;;;5032594;28;20025;-87
2021/08/12 08:19:01;;;;;;;10.35;5.90;;;;;;;;;;5033516;28;20017;-87
2021/08/12 08:21:27;;;;;;;11.85;5.93;;;;;;;;;;5032522;28;20021;-87
2021/08/12 08:23:53;;;;;;;14.63;7.13;;;;;;;;;;5018445;28;20022;-87
2021/08/12 08:26:18;;;;;;;10.38;6.07;;;;;;;;;;5031481;28;20029;-87
2021/08/12 08:28:43;;;;;;;7.38;5.03;;;;;;;;;;5032265;28;20028;-87
2021/08/12 08:31:09;;;;;;;9.18;5.15;;;;;;;;;;5032197;28;20013;-87
2021/08/12 08:33:35;;;;;;;11.95;6.68;;;;;;;;;;5032143;28;20026;-87
2021/08/12 08:36:01;;;;;;;9.57;5.43;;;;;;;;;;5018168;28;20104;-87
2021/08/12 08:38:26;;;;;;;9.73;4.70;;;;;;;;;;5032024;28;20041;-87
2021/08/12 08:40:52;;;;;;;9.68;5.15;;;;;;;;;;5028418;28;20071;-86
2021/08/12 08:43:18;;;;;;;9.43;5.80;;;;;;;;;;5032091;28;20018;-87
2021/08/12 08:45:44;;;;;;;9.98;5.43;;;;;;;;;;5031877;28;20025;-87
2021/08/12 08:48:10;;;;;;;9.10;5.63;;;;;;;;;;5031054;28;20044;-87
2021/08/12 08:50:37;;;;;;;6.95;4.68;;;;;;;;;;5023469;28;20535;-87
2021/08/12 08:53:03;;;;;;;9.80;4.97;;;;;;;;;;5031665;28;20028;-88
2021/08/12 08:55:28;;;;;;;7.25;4.78;;;;;;;;;;5031743;28;20462;-87
2021/08/12 08:57:55;;;;;;;10.25;5.60;;;;;;;;;;5025919;28;20099;-87
2021/08/12 09:00:20;;;;;;;7.90;4.95;;;;;;;;;;5031685;28;20021;-87
2021/08/12 09:02:46;;;;;;;10.00;5.50;;;;;;;;;;5031742;28;20028;-87
2021/08/12 09:05:12;;;;;;;13.48;5.72;;;;;;;;;;5031252;28;20017;-88
2021/08/12 09:07:37;;;;;;;9.27;5.32;;;;;;;;;;5031081;28;20022;-87
2021/08/12 09:10:03;;;;;;;12.55;5.18;;;;;;;;;;5031498;28;20021;-87
2021/08/12 09:12:30;;;;;;;8.82;4.97;;;;;;;;;;5028192;28;20014;-87
2021/08/12 09:15:05;;;;;;;9.48;4.70;;;;;;;;;;5022215;28;20048;-87
2021/08/12 09:17:31;;;;;;;13.75;5.38;;;;;;;;;;5027619;28;20030;-87
2021/08/12 09:20:02;;;;;;;9.68;4.72;;;;;;;;;;5021372;28;20032;-87
2021/08/12 09:22:28;;;;;;;9.10;4.22;;;;;;;;;;5031437;28;20345;-88
2021/08/12 09:24:54;;;;;;;9.63;4.60;;;;;;;;;;5031395;28;20105;-87
2021/08/12 09:27:22;;;;;;;10.85;4.68;;;;;;;;;;5030386;28;20017;-87
2021/08/12 09:29:48;;;;;;;7.18;4.40;;;;;;;;;;5031375;28;20018;-87
2021/08/12 09:32:16;;;;;;;9.13;4.50;;;;;;;;;;5031543;28;20496;-87
2021/08/12 09:34:42;;;;;;;6.97;4.00;;;;;;;;;;5031159;28;20067;-87
2021/08/12 09:37:08;;;;;;;9.68;4.10;;;;;;;;;;5031253;28;20037;-87
2021/08/12 09:39:34;;;;;;;8.85;4.50;;;;;;;;;;5022483;28;20018;-87
2021/08/12 09:41:59;;;;;;;6.78;4.22;;;;;;;;;;5031358;28;20017;-87
2021/08/12 09:44:28;;;;;;;10.10;4.22;;;;;;;;;;5029894;28;20075;-87
2021/08/12 09:46:56;;;;;;;6.22;3.53;;;;;;;;;;5018927;28;20503;-87
2021/08/12 09:49:22;;;;;;;6.75;3.70;;;;;;;;;;5058340;28;20391;-87
2021/08/12 09:51:47;;;;;;;6.82;3.78;;;;;;;;;;5031701;28;20022;-87
2021/08/12 09:54:12;;;;;;;6.88;4.00;;;;;;;;;;5031289;28;20112;-87
2021/08/12 09:56:37;;;;;;;6.38;3.40;;;;;;;;;;5018441;28;20104;-87
2021/08/12 09:59:09;;;;;;;6.32;3.63;;;;;;;;;;5030216;28;20017;-87
2021/08/12 10:01:34;;;;;;;9.63;4.25;;;;;;;;;;5027540;28;20552;-87
2021/08/12 10:04:17;;;;;;;6.40;3.90;;;;;;;;;;5023407;28;20116;-87
2021/08/12 10:06:43;;;;;;;10.55;3.63;;;;;;;;;;5027927;28;20026;-87
2021/08/12 10:09:15;;;;;;;10.38;3.75;;;;;;;;;;5030906;28;20431;-87
2021/08/12 10:11:40;;;;;;;8.15;4.10;;;;;;;;;;5030797;28;20108;-87
2021/08/12 10:14:06;;;;;;;8.02;3.50;;;;;;;;;;5030905;28;20045;-87
2021/08/12 10:16:34;;;;;;;6.18;3.97;;;;;;;;;;5030860;28;20443;-87
2021/08/12 10:19:00;;;;;;;10.52;4.00;;;;;;;;;;5029664;28;20045;-87
2021/08/12 10:21:26;;;;;;;7.90;3.83;;;;;;;;;;5032579;28;20013;-87
2021/08/12 10:23:53;;;;;;;7.45;4.25;;;;;;;;;;5028698;28;20021;-87
2021/08/12 10:26:19;;;;;;;9.77;4.50;;;;;;;;;;5034552;28;20021;-87
2021/08/12 10:28:46;;;;;;;9.18;4.25;;;;;;;;;;5023191;28;20017;-87
2021/08/12 10:31:16;;;;;;;8.40;4.40;;;;;;;;;;5032827;28;20045;-87
2021/08/12 10:33:41;;;;;;;9.50;3.78;;;;;;;;;;5034807;28;20032;-88
2021/08/12 10:36:06;;;;;;;9.55;4.22;;;;;;;;;;5020414;28;20407;-87
2021/08/12 10:38:33;;;;;;;8.45;4.18;;;;;;;;;;5029115;28;20026;-87
2021/08/12 10:40:59;;;;;;;7.18;4.10;;;;;;;;;;5029383;28;20484;-87
2021/08/12 10:43:27;;;;;;;8.48;3.95;;;;;;;;;;5034298;28;20017;-88
2021/08/12 10:45:54;;;;;;;12.05;4.50;;;;;;;;;;5035545;28;20029;-87
2021/08/12 10:48:20;;;;;;;10.18;4.40;;;;;;;;;;5022221;28;20026;-87
2021/08/12 10:50:58;;;;;;;10.70;4.68;;;;;;;;;;5014691;28;20022;-87
2021/08/12 10:53:23;;;;;;;7.68;4.18;;;;;;;;;;5030856;28;20060;-87
2021/08/12 10:55:51;;;;;;;7.68;4.07;;;;;;;;;;5015868;28;20060;-88
2021/08/12 10:58:28;;;;;;;6.28;4.05;;;;;;;;;;5014914;28;20053;-88
2021/08/12 11:00:54;;;;;;;9.35;4.60;;;;;;;;;;5025233;28;20029;-87
2021/08/12 11:03:31;;;;;;;8.30;4.50;;;;;;;;;;5016050;28;20021;-87
2021/08/12 11:06:01;;;;;;;9.35;4.70;;;;;;;;;;5024831;28;20390;-88
2021/08/12 11:08:44;;;;;;;11.30;4.63;;;;;;;;;;5029889;28;20029;-87
2021/08/12 11:11:09;;;;;;;8.75;4.88;;;;;;;;;;5014271;28;20117;-87
2021/08/12 11:13:35;;;;;;;7.25;3.83;;;;;;;;;;5018540;28;20053;-87
2021/08/12 11:16:00;;;;;;;7.00;4.00;;;;;;;;;;5032949;28;20203;-87
2021/08/12 11:19:01;;;;;;;8.38;4.30;;;;;;;;;;5017607;28;20029;-88
2021/08/12 11:21:32;;;;;;;10.43;4.90;;;;;;;;;;4998545;28;20041;-88
2021/08/12 11:24:03;;;;;;;7.97;4.55;;;;;;;;;;5023775;28;20083;-88
2021/08/12 11:26:40;;;;;;;7.70;4.50;;;;;;;;;;5033865;28;20041;-87
2021/08/12 11:29:06;;;;;;;10.30;4.70;;;;;;;;;;5018959;28;20022;-87
2021/08/12 11:31:31;;;;;;;9.63;4.70;;;;;;;;;;5016240;28;20018;-87
2021/08/12 11:34:01;;;;;;;9.98;4.63;;;;;;;;;;5026572;28;20116;-87
2021/08/12 11:36:29;;;;;;;10.10;4.32;;;;;;;;;;5019454;28;20029;-87
2021/08/12 11:38:57;;;;;;;10.55;4.70;;;;;;;;;;5021437;28;20022;-87
2021/08/12 11:41:23;;;;;;;9.18;4.30;;;;;;;;;;5018336;28;20014;-87
2021/08/12 11:43:48;;;;;;;11.32;4.00;;;;;;;;;;5023061;28;20029;-87
2021/08/12 11:46:14;;;;;;;9.32;4.60;;;;;;;;;;5020617;28;20465;-87
2021/08/12 11:48:40;;;;;;;8.65;4.28;;;;;;;;;;5033021;28;20025;-87
2021/08/12 11:51:05;;;;;;;8.98;4.28;;;;;;;;;;5032816;28;20442;-86
2021/08/12 11:53:43;;;;;;;7.20;4.20;;;;;;;;;;5033039;28;20412;-88
2021/08/12 11:56:09;;;;;;;7.60;4.40;;;;;;;;;;5023162;28;20109;-87
2021/08/12 11:58:35;;;;;;;8.63;4.72;;;;;;;;;;5023622;28;20048;-87
2021/08/12 12:01:32;;;;;;;10.63;4.65;;;;;;;;;;5032909;28;20053;-88
2021/08/12 12:03:59;;;;;;;6.72;4.07;;;;;;;;;;5009991;28;20472;-88
2021/08/12 12:06:28;;;;;;;7.07;3.90;;;;;;;;;;5033215;28;20018;-88
2021/08/12 12:08:53;;;;;;;8.82;3.90;;;;;;;;;;5028870;28;20376;-88
2021/08/12 12:11:18;;;;;;;10.52;3.88;;;;;;;;;;5022730;28;20033;-88
2021/08/12 12:13:43;;;;;;;6.30;3.58;;;;;;;;;;5017409;28;20022;-88
2021/08/12 12:16:10;;;;;;;11.45;3.72;;;;;;;;;;5033134;28;20041;-87
2021/08/12 12:18:36;;;;;;;8.90;3.00;;;;;;;;;;5033060;28;20021;-88
2021/08/12 12:21:09;;;;;;;7.13;4.00;;;;;;;;;;5032830;28;20014;-88
2021/08/12 12:23:35;;;;;;;5.53;2.92;;;;;;;;;;5034237;28;20120;-88
2021/08/12 12:26:01;;;;;;;7.60;3.55;;;;;;;;;;5028537;28;20014;-87
2021/08/12 12:28:27;;;;;;;46.50;4.18;;;;;;;;;;5033119;28;20044;-87
2021/08/12 12:30:52;;;;;;;6.72;3.95;;;;;;;;;;5032667;28;20116;-87
2021/08/12 12:33:18;;;;;;;6.75;3.63;;;;;;;;;;5032802;28;20448;-88
2021/08/12 12:35:45;;;;;;;8.07;3.70;;;;;;;;;;5032625;28;20021;-87
2021/08/12 12:38:13;;;;;;;6.35;3.60;;;;;;;;;;5027261;28;20057;-88
2021/08/12 12:40:38;;;;;;;5.72;3.22;;;;;;;;;;5021531;28;20412;-88
2021/08/12 12:43:04;;;;;;;7.82;3.65;;;;;;;;;;5023568;28;20013;-88
2021/08/12 12:45:42;;;;;;;8.70;3.55;;;;;;;;;;5023659;28;20080;-88
2021/08/12 12:48:09;;;;;;;8.95;3.45;;;;;;;;;;5032329;28;20041;-88
2021/08/12 12:50:43;;;;;;;8.05;3.67;;;;;;;;;;5032490;28;20029;-88
2021/08/12 12:53:08;;;;;;;7.90;3.33;;;;;;;;;;5029393;28;20056;-88
2021/08/12 12:55:34;;;;;;;6.38;3.67;;;;;;;;;;5018180;28;20050;-87
2021/08/12 12:58:12;;;;;;;7.55;3.53;;;;;;;;;;5013806;28;20076;-88
2021/08/12 13:00:39;;;;;;;10.13;4.03;;;;;;;;;;5012610;28;20116;-88
2021/08/12 13:03:04;;;;;;;11.95;3.72;;;;;;;;;;5024200;28;20109;-88
2021/08/12 13:05:49;;;;;;;8.00;3.80;;;;;;;;;;5022054;28;20136;-88
2021/08/12 13:08:14;;;;;;;8.48;4.22;;;;;;;;;;5027571;28;20485;-87
2021/08/12 13:10:39;;;;;;;5.70;3.67;;;;;;;;;;5033433;28;20048;-88
2021/08/12 13:13:05;;;;;;;8.55;3.60;;;;;;;;;;5032068;28;20018;-88
2021/08/12 13:15:30;;;;;;;7.10;3.70;;;;;;;;;;5032005;28;20025;-88
2021/08/12 13:17:59;;;;;;;7.82;3.72;;;;;;;;;;5032127;28;20028;-88
2021/08/12 13:20:25;;;;;;;6.20;3.83;;;;;;;;;;5030523;28;20037;-88
2021/08/12 13:22:52;;;;;;;6.97;3.75;;;;;;;;;;5031903;28;20442;-88
2021/08/12 13:25:18;;;;;;;8.05;3.70;;;;;;;;;;5032091;28;20022;-88
2021/08/12 13:27:51;;;;;;;6.10;3.38;;;;;;;;;;5031844;28;20096;-88
2021/08/12 13:30:18;;;;;;;9.73;4.10;;;;;;;;;;5033356;28;20037;-88
2021/08/12 13:32:43;;;;;;;7.65;3.67;;;;;;;;;;5020993;28;20033;-88
2021/08/12 13:35:09;;;;;;;7.88;3.47;;;;;;;;;;5019245;28;20022;-88
2021/08/12 13:37:34;;;;;;;8.13;4.13;;;;;;;;;;5016238;28;20026;-87
2021/08/12 13:40:00;;;;;;;7.15;3.88;;;;;;;;;;5025560;28;20175;-87
2021/08/12 13:42:25;;;;;;;6.68;4.13;;;;;;;;;;5019278;28;20363;-88
2021/08/12 13:44:51;;;;;;;6.10;3.72;;;;;;;;;;5015511;28;20025;-87
2021/08/12 13:47:16;;;;;;;13.57;3.97;;;;;;;;;;5011754;28;20019;-88
2021/08/12 13:49:41;;;;;;;6.95;4.18;;;;;;;;;;5022341;28;20040;-88
2021/08/12 13:52:06;;;;;;;6.43;3.90;;;;;;;;;;5020925;28;20026;-88
2021/08/12 13:54:34;;;;;;;8.50;3.90;;;;;;;;;;5030360;28;20148;-87
2021/08/12 13:56:59;;;;;;;8.18;4.00;;;;;;;;;;5035010;28;20064;-88
2021/08/12 13:59:25;;;;;;;5.90;3.92;;;;;;;;;;5029499;28;20477;-88
2021/08/12 14:01:51;;;;;;;6.07;3.80;;;;;;;;;;5026315;28;20071;-88
2021/08/12 14:04:16;;;;;;;10.82;4.22;;;;;;;;;;5018493;28;20555;-87
2021/08/12 14:06:42;;;;;;;8.20;4.05;;;;;;;;;;5032083;28;20017;-87
2021/08/12 14:09:07;;;;;;;7.57;4.25;;;;;;;;;;5027410;28;20018;-88
2021/08/12 14:11:33;;;;;;;12.48;4.38;;;;;;;;;;5017362;28;20427;-88
2021/08/12 14:13:58;;;;;;;6.38;3.65;;;;;;;;;;5021206;28;20025;-87
2021/08/12 14:16:23;;;;;;;6.97;4.20;;;;;;;;;;5025398;28;20449;-88
2021/08/12 14:18:49;;;;;;;9.30;3.90;;;;;;;;;;5036518;28;20031;-87
2021/08/12 14:21:15;;;;;;;5.95;3.78;;;;;;;;;;5022727;28;20029;-88
2021/08/12 14:23:41;;;;;;;9.68;4.25;;;;;;;;;;5035346;28;20427;-88
2021/08/12 14:26:07;;;;;;;5.13;3.65;;;;;;;;;;5020746;28;20013;-87
2021/08/12 14:28:32;;;;;;;7.38;4.05;;;;;;;;;;5032346;28;20018;-88
2021/08/12 14:30:57;;;;;;;9.02;4.53;;;;;;;;;;5036202;28;20025;-88
2021/08/12 14:33:22;;;;;;;11.45;4.80;;;;;;;;;;5020720;28;20124;-87